Flight Track Log - Related Links

Times and Time Zones

All times are in EDT time to prevent confusion due to time zone crossing. See the N244A flight status page for this flight to view local times or setup timezone preferences in your user account.

Time Position Orientation Groundspeed Altitude Reporting Facility
EDT Latitude Longitude Course Direction KTS MPH feet Rate Location/Type
Mon 08:18:30 PM 28.1000 -80.6167 96° East 185 213 1,000  Level Orlando TRACON
Mon 08:19:30 PM 28.1500 -80.5667 41° Northeast 281 323 3,600 2,158 Climbing Orlando TRACON
Mon 08:20:24 PM 28.2000 -80.6167 319° Northwest 282 325 5,100 2,105 Climbing Orlando TRACON
Mon 08:21:24 PM 28.2500 -80.6833 310° West 287 330 7,600 2,800 Climbing Orlando TRACON
Mon 08:22:24 PM 28.3167 -80.7333 327° Northwest 289 333 10,700 2,319 Climbing Orlando TRACON
Mon 08:24:07 PM 28.4322 -80.8508 318° Northwest 341 392 13,900 1,215 Climbing Jacksonville Center
Mon 08:25:07 PM 28.5083 -80.9225 320° Northwest 351 404 14,000 1,050 Climbing Jacksonville Center
Mon 08:26:07 PM 28.5844 -80.9919 321° Northwest 351 404 16,000 2,000 Climbing Jacksonville Center
Mon 08:27:07 PM 28.6606 -81.0589 322° Northwest 351 404 18,000 2,000 Climbing Jacksonville Center
Mon 08:28:07 PM 28.7389 -81.1308 321° Northwest 351 404 20,000 2,050 Climbing Jacksonville Center
Mon 08:29:07 PM 28.8192 -81.2031 322° Northwest 357 411 22,100 2,050 Climbing Jacksonville Center
Mon 08:30:07 PM 28.8953 -81.2775 319° Northwest 357 411 24,100 1,900 Climbing Jacksonville Center
Mon 08:31:07 PM 28.9775 -81.3497 322° Northwest 357 411 25,900 1,650 Climbing Jacksonville Center
Mon 08:32:07 PM 29.0739 -81.3911 339° North 362 417 27,400 1,500 Climbing Jacksonville Center
Mon 08:33:07 PM 29.1847 -81.3989 356° North 368 423 28,900 1,300 Climbing Jacksonville Center
Mon 08:34:07 PM 29.2933 -81.4092 355° North 382 440 30,000 1,100 Climbing Jacksonville Center
Mon 08:35:07 PM 29.4000 -81.4219 354° North 388 447 31,100 1,100 Climbing Jacksonville Center
Mon 08:36:07 PM 29.5044 -81.4347 354° North 388 447 32,200 1,100 Climbing Jacksonville Center
Mon 08:37:07 PM 29.6133 -81.4450 355° North 388 447 33,300 850 Climbing Jacksonville Center
Mon 08:38:07 PM 29.7219 -81.4528 356° North 388 447 33,900 700 Climbing Jacksonville Center
Mon 08:39:07 PM 29.8325 -81.4656 354° North 388 447 34,700 700 Climbing Jacksonville Center
Mon 08:40:07 PM 29.9456 -81.4736 356° North 388 447 35,300 700 Climbing Jacksonville Center
Mon 08:41:07 PM 30.0561 -81.4839 355° North 393 452 36,100 700 Climbing Jacksonville Center
Mon 08:42:07 PM 30.1586 -81.4944 355° North 398 458 36,700 600 Climbing Jacksonville Center
Mon 08:43:07 PM 30.2653 -81.5025 356° North 398 458 37,300 500 Climbing Jacksonville Center
Mon 08:44:07 PM 30.3758 -81.5106 356° North 393 452 37,700 400 Climbing Jacksonville Center
Mon 08:45:07 PM 30.4864 -81.5017 North 393 452 38,100 400 Climbing Jacksonville Center
Mon 08:46:07 PM 30.5992 -81.4903 North 399 459 38,500 400 Climbing Jacksonville Center
Mon 08:47:07 PM 30.7097 -81.4839 North 399 459 38,900 200 Climbing Jacksonville Center
Mon 08:48:07 PM 30.8181 -81.4725 North 399 459 38,900  Level Jacksonville Center
Mon 08:49:07 PM 30.9328 -81.4419 13° North 409 471 38,900 50 Level Jacksonville Center
Mon 08:50:07 PM 31.0467 -81.3697 29° Northeast 430 495 39,000 50 Climbing Jacksonville Center
Mon 08:51:07 PM 31.1564 -81.2878 33° Northeast 443 510 39,000  Level Jacksonville Center
Mon 08:52:07 PM 31.2681 -81.2083 31° Northeast 460 529 39,000  Level Jacksonville Center
Mon 08:53:07 PM 31.3922 -81.1208 31° Northeast 466 536 39,000  Level Jacksonville Center
Mon 08:54:07 PM 31.4956 -81.0481 31° Northeast 466 536 39,000  Level Jacksonville Center
Mon 08:55:07 PM 31.6153 -80.9606 32° Northeast 461 531 39,000  Level Jacksonville Center
Mon 08:56:07 PM 31.7289 -80.8822 30° Northeast 468 539 39,000  Level Jacksonville Center
Mon 08:57:07 PM 31.8281 -80.8117 31° Northeast 468 539 39,000  Level Jacksonville Center
Mon 08:58:07 PM 31.9517 -80.7233 31° Northeast 468 539 39,000  Level Jacksonville Center
Mon 08:59:07 PM 32.0528 -80.6497 32° Northeast 463 533 39,000 -50 Level Jacksonville Center
Mon 09:00:07 PM 32.1722 -80.5608 32° Northeast 463 533 38,900 -50 Descending Jacksonville Center
Mon 09:01:07 PM 32.2836 -80.4844 30° Northeast 458 527 38,900  Level Jacksonville Center
Mon 09:02:07 PM 32.3925 -80.4028 32° Northeast 458 527 38,900 50 Level Jacksonville Center
Mon 09:03:07 PM 32.5036 -80.3233 31° Northeast 458 527 39,000  Climbing Jacksonville Center
Mon 09:04:07 PM 32.6169 -80.2411 31° Northeast 464 534 38,900 -50 Descending Jacksonville Center
Mon 09:05:07 PM 32.7258 -80.1614 32° Northeast 464 534 38,900  Level Jacksonville Center
Mon 09:06:07 PM 32.8264 -80.0869 32° Northeast 470 541 38,900  Level Jacksonville Center
Mon 09:07:07 PM 32.9372 -80.0042 32° Northeast 465 535 38,900  Level Jacksonville Center
Mon 09:08:07 PM 33.0506 -79.9361 27° Northeast 460 529 38,900  Level Jacksonville Center
Mon 09:09:07 PM 33.1636 -79.8703 26° Northeast 449 517 38,900  Level Jacksonville Center
Mon 09:10:07 PM 33.2789 -79.7992 27° Northeast 449 517 38,900  Level Jacksonville Center
Mon 09:11:07 PM 33.3919 -79.7283 28° Northeast 449 517 38,900  Level Jacksonville Center
Mon 09:12:07 PM 33.5050 -79.6569 28° Northeast 449 517 38,900  Level Jacksonville Center
Mon 09:13:07 PM 33.6178 -79.5856 28° Northeast 449 517 38,900  Level Jacksonville Center
Mon 09:14:07 PM 33.7347 -79.5111 28° Northeast 449 517 38,900  Level Jacksonville Center
Mon 09:15:07 PM 33.8497 -79.4392 27° Northeast 449 517 38,900  Level Jacksonville Center
Mon 09:16:07 PM 33.9706 -79.3644 27° Northeast 449 517 38,900  Level Jacksonville Center
Mon 09:17:07 PM 34.0875 -79.2919 27° Northeast 449 517 38,900  Level Jacksonville Center
Mon 09:18:07 PM 34.2044 -79.2169 28° Northeast 455 524 38,900 37 Level Jacksonville Center
Mon 09:19:49 PM 34.3897 -79.0950 29° Northeast 470 541 39,000  Climbing Washington Center
Mon 09:20:49 PM 34.5044 -79.0219 28° Northeast 470 541 38,900  Descending Washington Center
Mon 09:21:50 PM 34.6214 -78.9436 29° Northeast 465 535 39,000 50 Climbing Washington Center
Mon 09:22:50 PM 34.7383 -78.8675 28° Northeast 470 541 39,000  Level Washington Center
Mon 09:23:48 PM 34.8553 -78.7886 29° Northeast 470 541 39,000  Level Washington Center
Mon 09:24:49 PM 34.9719 -78.7147 27° Northeast 470 541 39,000  Level Washington Center
Mon 09:25:49 PM 35.0886 -78.6356 29° Northeast 470 541 39,000  Level Washington Center
Mon 09:26:50 PM 35.2097 -78.5586 27° Northeast 470 541 39,000  Level Washington Center
Mon 09:27:50 PM 35.3242 -78.4814 29° Northeast 470 541 39,000  Level Washington Center
Mon 09:28:48 PM 35.4472 -78.3992 29° Northeast 483 556 39,000 -303 Level Washington Center
Mon 09:29:49 PM 35.5681 -78.3167 29° Northeast 489 563 38,400 -541 Descending Washington Center
Mon 09:30:50 PM 35.7014 -78.2317 27° Northeast 489 563 37,900 -605 Descending Washington Center
Mon 09:31:48 PM 35.8178 -78.1536 29° Northeast 489 563 37,200 -508 Descending Washington Center
Mon 09:32:48 PM 35.9383 -78.0728 28° Northeast 483 556 36,900 -149 Descending Washington Center
Mon 09:33:49 PM 36.0569 -77.9942 28° Northeast 483 556 36,900  Level Washington Center
Mon 09:34:49 PM 36.1753 -77.9156 28° Northeast 478 550 36,900  Level Washington Center
Mon 09:35:50 PM 36.2917 -77.8364 29° Northeast 478 550 36,900  Level Washington Center
Mon 09:36:48 PM 36.4100 -77.7547 29° Northeast 478 550 36,900  Level Washington Center
Mon 09:37:48 PM 36.5133 -77.6800 30° Northeast 478 550 36,900  Level Washington Center
Mon 09:38:50 PM 36.6400 -77.5928 29° Northeast 472 543 36,900 -492 Level Washington Center
Mon 09:39:50 PM 36.7539 -77.5156 29° Northeast 467 537 35,900 -1,424 Descending Washington Center
Mon 09:40:48 PM 36.8658 -77.4378 29° Northeast 462 532 34,100 -1,815 Descending Washington Center
Mon 09:41:49 PM 36.9797 -77.3625 28° Northeast 462 532 32,300 -1,721 Descending Washington Center
Mon 09:42:50 PM 37.0956 -77.2817 29° Northeast 462 532 30,600 -1,210 Descending Washington Center
Mon 09:43:48 PM 37.2092 -77.1983 30° Northeast 468 539 29,900 -1,109 Descending Washington Center
Mon 09:44:49 PM 37.3250 -77.1197 28° Northeast 462 532 28,400 -1,525 Descending Washington Center
Mon 09:45:50 PM 37.4450 -77.0331 30° Northeast 482 555 26,800 -1,339 Descending Washington Center
Mon 09:46:50 PM 37.5522 -76.9514 31° Northeast 495 570 25,700 -1,050 Descending Washington Center
Mon 09:47:50 PM 37.6700 -76.8617 31° Northeast 495 570 24,700 -1,017 Descending Washington Center
Mon 09:48:48 PM 37.7900 -76.7742 30° Northeast 490 564 23,700 -864 Descending Washington Center
Mon 09:49:48 PM 37.9056 -76.6867 31° Northeast 490 564 23,000 -344 Descending Washington Center
Mon 09:50:50 PM 38.0167 -76.6039 30° Northeast 480 552 23,000  Level Washington Center
Mon 09:51:50 PM 38.1278 -76.5183 31° Northeast 469 540 23,000  Level Washington Center
Mon 09:52:48 PM 38.2389 -76.4378 30° Northeast 464 534 23,000  Level Washington Center
Mon 09:53:48 PM 38.3519 -76.3700 25° Northeast 456 525 23,000  Level Washington Center
Mon 09:54:50 PM 38.4689 -76.3447 10° North 435 501 23,000  Level Washington Center
Mon 09:55:48 PM 38.5881 -76.3142 11° North 430 495 23,000  Level Washington Center
Mon 09:56:48 PM 38.7050 -76.2753 15° North 430 495 23,000 -298 Level Washington Center
Mon 09:57:49 PM 38.8217 -76.2711 North 430 495 22,400 -744 Descending Washington Center
Mon 09:58:49 PM 38.9300 -76.3200 341° North 410 472 21,500 -897 Descending Washington Center
Mon 10:00:43 PM 39.1514 -76.4417 337° Northwest 436 502 19,800 -1,097 Descending New York Center
Mon 10:01:44 PM 39.2592 -76.4986 338° Northwest 430 495 18,300 -1,537 Descending New York Center
Mon 10:02:44 PM 39.3425 -76.5456 336° Northwest 397 457 16,700 -1,765 Descending New York Center
Mon 10:03:43 PM 39.4622 -76.6092 338° Northwest 407 468 14,800 -1,550 Descending New York Center
Mon 10:04:44 PM 39.5592 -76.6306 350° North 384 442 13,600 -1,400 Descending New York Center
Mon 10:05:43 PM 39.6506 -76.6408 355° North 338 389 12,000 -1,513 Descending New York Center
Mon 10:06:43 PM 39.7331 -76.6561 352° North 311 358 10,600 -1,450 Descending New York Center
Mon 10:07:43 PM 39.8108 -76.6464 North 284 327 9,100 -850 Descending New York Center
Mon 10:08:43 PM 39.8850 -76.6228 14° North 273 314 8,900 -694 Descending New York Center
Mon 10:09:44 PM 39.9572 -76.6342 353° North 262 302 7,700 -1,140 Descending New York Center
Mon 10:10:44 PM 40.0278 -76.6456 353° North 256 295 6,600 -1,400 Descending New York Center
Mon 10:11:44 PM 40.0983 -76.6514 356° North 251 289 4,900 -1,311 Descending New York Center
Mon 10:12:43 PM 40.1606 -76.6567 356° North 256 295 4,000 -454 Descending New York Center
Mon 10:13:43 PM 40.2133 -76.6831 339° North 226 260 4,000 -50 Level New York Center
Mon 10:14:44 PM 40.2481 -76.7403 308° West 187 215 3,900 -496 Descending New York Center
Mon 10:15:44 PM 40.2683 -76.7911 298° West 169 194 3,000 -550 Descending New York Center
Mon 10:16:44 PM 40.2869 -76.8389 297° West 146 168 2,800 -200 Descending New York Center
Mon 10:20:00 PM 40.2687 -76.8673 134° Southeast  Level FlightAware Approximate
Mon 10:27:00 PM 40.1932 -76.7626 134° Southeast  Level Estimated

Login

Don't have an account? Register now (free) for customized features, flight alerts, and more!